createdAt,value
2022-10-30T00:00:07.117Z,100616.59
2022-10-30T00:01:13.411Z,100615.75
2022-10-30T00:02:15.016Z,100616.06
2022-10-30T00:03:16.753Z,100619.19
2022-10-30T00:04:18.342Z,100610.72
2022-10-30T00:05:20.892Z,100615.22
2022-10-30T00:06:22.412Z,100620.34
2022-10-30T00:07:23.894Z,100612.72
2022-10-30T00:08:25.846Z,100615.66
2022-10-30T00:09:27.288Z,100607.16
2022-10-30T00:10:28.748Z,100610.84
2022-10-30T00:11:30.304Z,100605.19
2022-10-30T00:12:31.747Z,100602.38
2022-10-30T00:13:33.187Z,100606.84
2022-10-30T00:14:34.705Z,100608.53
2022-10-30T00:15:36.314Z,100608.53
2022-10-30T00:16:37.794Z,100610.19
2022-10-30T00:17:39.340Z,100598.91
2022-10-30T00:18:42.267Z,100605.38
2022-10-30T00:19:43.852Z,100610.19
2022-10-30T00:20:45.338Z,100598.06
2022-10-30T00:21:46.815Z,100605.38
2022-10-30T00:22:48.280Z,100605.38
2022-10-30T00:23:50.360Z,100609.38
2022-10-30T00:24:51.834Z,100609.38
2022-10-30T00:25:53.291Z,100604.88
2022-10-30T00:26:54.825Z,100610.53
2022-10-30T00:27:56.426Z,100598.69
2022-10-30T00:28:57.901Z,100588.25
2022-10-30T00:29:59.372Z,100587.78
2022-10-30T00:31:01.343Z,100604.34
2022-10-30T00:32:04.138Z,100602.38
2022-10-30T00:33:05.670Z,100597.03
2022-10-30T00:34:08.320Z,100599.84
2022-10-30T00:35:10.856Z,100606.66
2022-10-30T00:36:13.685Z,100607.50
2022-10-30T00:37:17.376Z,100606.94
2022-10-30T00:38:18.823Z,100603.59
2022-10-30T00:39:20.408Z,100591.03
2022-10-30T00:40:21.891Z,100592.59
2022-10-30T00:41:23.582Z,100603.06
2022-10-30T00:42:28.440Z,100593.22
2022-10-30T00:43:39.861Z,100600.88
2022-10-30T00:44:41.422Z,100598.03
2022-10-30T00:45:42.897Z,100593.22
2022-10-30T00:46:44.413Z,100597.22
2022-10-30T00:47:52.769Z,100590.72
2022-10-30T00:48:58.275Z,100594.69
2022-10-30T00:50:07.979Z,100581.28
2022-10-30T00:51:09.600Z,100593.03
2022-10-30T00:52:11.089Z,100597.84
2022-10-30T00:53:13.853Z,100592.47
2022-10-30T00:54:15.904Z,100582.31
2022-10-30T00:55:18.457Z,100597.59
2022-10-30T00:56:20.472Z,100603.25
2022-10-30T00:57:22.333Z,100597.59
2022-10-30T00:58:29.166Z,100596.75
2022-10-30T00:59:30.858Z,100592.78
2022-10-30T01:00:32.354Z,100587.44
2022-10-30T01:01:35.286Z,100592.56
2022-10-30T01:02:37.304Z,100593.72
2022-10-30T01:03:39.650Z,100590.06
2022-10-30T01:04:41.154Z,100590.38
2022-10-30T01:05:42.923Z,100583.91
2022-10-30T01:06:45.459Z,100586.72
2022-10-30T01:07:47.006Z,100575.75
2022-10-30T01:08:48.595Z,100580.88
2022-10-30T01:09:50.278Z,100582.53
2022-10-30T01:10:52.022Z,100572.91
2022-10-30T01:11:53.625Z,100585.03
2022-10-30T01:12:55.144Z,100588.72
2022-10-30T01:13:57.568Z,100580.56
2022-10-30T01:14:59.055Z,100576.91
2022-10-30T01:16:06.105Z,100584.22
2022-10-30T01:17:19.705Z,100581.38
2022-10-30T01:18:23.942Z,100582.22
2022-10-30T01:19:38.632Z,100589.03
2022-10-30T01:20:57.618Z,100583.38
2022-10-30T01:22:11.188Z,100586.19
2022-10-30T01:23:12.854Z,100584.81
2022-10-30T01:24:33.876Z,100581.47
2022-10-30T01:25:38.556Z,100578.03
2022-10-30T01:26:41.306Z,100577.47
2022-10-30T01:27:42.789Z,100574.34
2022-10-30T01:28:55.369Z,100573.50
2022-10-30T01:30:15.253Z,100579.72
2022-10-30T01:31:21.023Z,100569.56
2022-10-30T01:32:35.020Z,100578.56
2022-10-30T01:33:43.717Z,100571.25
2022-10-30T01:34:45.267Z,100570.41
2022-10-30T01:35:54.034Z,100565.59
2022-10-30T01:37:10.612Z,100570.09
2022-10-30T01:38:30.922Z,100573.75
2022-10-30T01:39:35.719Z,100567.78
2022-10-30T01:40:37.228Z,100576.25
2022-10-30T01:41:39.657Z,100571.44
2022-10-30T01:42:53.942Z,100563.81
2022-10-30T01:44:02.533Z,100568.84
2022-10-30T01:45:04.785Z,100567.47
2022-10-30T01:46:18.513Z,100570.00
2022-10-30T01:47:23.051Z,100570.50
2022-10-30T01:48:27.433Z,100573.34
2022-10-30T01:49:31.797Z,100575.84
2022-10-30T01:50:33.948Z,100567.38
2022-10-30T01:52:07.819Z,100576.69
2022-10-30T01:53:22.986Z,100569.38
2022-10-30T01:54:30.440Z,100572.72
2022-10-30T01:55:50.380Z,100568.22
2022-10-30T01:56:54.744Z,100561.41
2022-10-30T01:58:04.252Z,100573.56
2022-10-30T01:59:08.752Z,100570.44
2022-10-30T02:00:11.290Z,100570.44
2022-10-30T02:01:15.709Z,100570.13
2022-10-30T02:02:17.597Z,100572.94
2022-10-30T02:03:19.381Z,100571.47
2022-10-30T02:04:21.069Z,100575.44
2022-10-30T02:05:36.685Z,100577.13
2022-10-30T02:06:38.222Z,100566.66
2022-10-30T02:07:39.873Z,100567.81
2022-10-30T02:08:43.377Z,100575.97
2022-10-30T02:09:45.090Z,100573.16
2022-10-30T02:10:48.733Z,100577.97
2022-10-30T02:11:50.448Z,100574.81
2022-10-30T02:12:52.308Z,100577.66
2022-10-30T02:13:54.322Z,100571.69
2022-10-30T02:14:56.875Z,100571.69
2022-10-30T02:15:58.435Z,100583.81
2022-10-30T02:17:00.784Z,100577.03
2022-10-30T02:18:02.472Z,100576.50
2022-10-30T02:19:04.555Z,100567.72
2022-10-30T02:20:07.005Z,100575.34
2022-10-30T02:21:09.037Z,100570.22
2022-10-30T02:22:12.594Z,100575.88
2022-10-30T02:23:18.898Z,100576.69
2022-10-30T02:24:20.489Z,100578.69
2022-10-30T02:25:22.037Z,100577.56
2022-10-30T02:26:23.593Z,100582.34
2022-10-30T02:27:25.130Z,100577.66
2022-10-30T02:28:26.623Z,100578.81
2022-10-30T02:29:28.184Z,100577.66
2022-10-30T02:30:29.805Z,100578.81
2022-10-30T02:31:31.416Z,100576.28
2022-10-30T02:32:33.041Z,100580.25
2022-10-30T02:33:34.651Z,100579.13
2022-10-30T02:34:36.868Z,100574.63
2022-10-30T02:35:38.390Z,100568.13
2022-10-30T02:36:39.991Z,100572.94
2022-10-30T02:37:41.498Z,100568.75
2022-10-30T02:38:44.132Z,100568.75
2022-10-30T02:39:45.660Z,100570.44
2022-10-30T02:40:49.822Z,100576.09
2022-10-30T02:41:51.337Z,100571.88
2022-10-30T02:42:53.477Z,100571.88
2022-10-30T02:43:54.949Z,100575.53
2022-10-30T02:44:56.545Z,100561.41
2022-10-30T02:45:58.166Z,100560.56
2022-10-30T02:47:00.119Z,100569.88
2022-10-30T02:48:02.669Z,100572.72
2022-10-30T02:49:05.559Z,100567.69
2022-10-30T02:50:07.559Z,100564.13
2022-10-30T02:51:12.229Z,100566.53
2022-10-30T02:52:14.416Z,100578.66
2022-10-30T02:53:16.908Z,100571.03
2022-10-30T02:54:19.625Z,100570.19
2022-10-30T02:55:21.300Z,100566.22
2022-10-30T02:56:23.755Z,100565.38
2022-10-30T02:57:25.262Z,100565.38
2022-10-30T02:58:26.763Z,100561.72
2022-10-30T02:59:28.260Z,100567.38
2022-10-30T03:00:29.798Z,100567.06
2022-10-30T03:01:31.571Z,100562.28
2022-10-30T03:02:34.508Z,100569.59
2022-10-30T03:03:36.275Z,100563.13
2022-10-30T03:04:37.880Z,100555.75
2022-10-30T03:05:39.425Z,100550.13
2022-10-30T03:06:41.031Z,100558.59
2022-10-30T03:07:42.506Z,100557.47
2022-10-30T03:08:44.093Z,100565.94
2022-10-30T03:09:45.688Z,100557.47
2022-10-30T03:10:47.277Z,100563.13
2022-10-30T03:11:48.832Z,100556.31
2022-10-30T03:12:50.391Z,100567.06
2022-10-30T03:13:51.906Z,100565.94
2022-10-30T03:14:53.449Z,100563.13
2022-10-30T03:15:59.455Z,100548.56
2022-10-30T03:17:00.956Z,100564.78
2022-10-30T03:18:02.557Z,100570.44
2022-10-30T03:19:04.207Z,100573.78
2022-10-30T03:20:08.057Z,100572.13
2022-10-30T03:21:10.096Z,100567.28
2022-10-30T03:22:11.899Z,100572.94
2022-10-30T03:23:13.386Z,100569.28
2022-10-30T03:24:15.009Z,100566.47
2022-10-30T03:25:16.630Z,100565.31
2022-10-30T03:26:18.686Z,100568.13
2022-10-30T03:27:24.828Z,100568.13
2022-10-30T03:28:27.513Z,100565.63
2022-10-30T03:29:29.849Z,100572.13
2022-10-30T03:30:31.469Z,100576.09
2022-10-30T03:31:36.119Z,100567.94
2022-10-30T03:32:50.806Z,100572.72
2022-10-30T03:33:52.275Z,100573.03
2022-10-30T03:34:53.847Z,100576.69
2022-10-30T03:35:55.824Z,100573.34
2022-10-30T03:36:57.401Z,100586.31
2022-10-30T03:37:58.854Z,100585.78
2022-10-30T03:39:00.386Z,100587.75
2022-10-30T03:40:02.651Z,100581.28
2022-10-30T03:41:04.597Z,100590.91
2022-10-30T03:42:06.161Z,100589.22
2022-10-30T03:43:07.748Z,100586.72
2022-10-30T03:44:09.228Z,100591.53
2022-10-30T03:45:10.897Z,100590.69
2022-10-30T03:46:12.569Z,100583.38
2022-10-30T03:47:14.183Z,100578.88
2022-10-30T03:48:18.744Z,100587.34
2022-10-30T03:49:20.340Z,100576.34
2022-10-30T03:50:21.866Z,100587.94
2022-10-30T03:51:23.422Z,100584.59
2022-10-30T03:52:25.286Z,100586.59
2022-10-30T03:53:28.439Z,100582.09
2022-10-30T03:54:30.123Z,100581.25
2022-10-30T03:55:31.698Z,100576.75
2022-10-30T03:56:33.526Z,100582.72
2022-10-30T03:57:36.890Z,100578.22
2022-10-30T03:58:45.852Z,100571.72
2022-10-30T03:59:49.385Z,100577.97
2022-10-30T04:01:13.695Z,100581.94
2022-10-30T04:03:21.002Z,100586.22
2022-10-30T04:04:23.106Z,100580.59
2022-10-30T04:05:25.211Z,100583.72
2022-10-30T04:06:28.735Z,100583.72
2022-10-30T04:07:31.110Z,100587.69
2022-10-30T04:08:33.478Z,100575.56
2022-10-30T04:09:35.222Z,100581.22
2022-10-30T04:10:37.262Z,100587.16
2022-10-30T04:11:44.952Z,100589.97
2022-10-30T04:12:47.970Z,100585.19
2022-10-30T04:13:49.724Z,100586.31
2022-10-30T04:14:54.326Z,100591.13
2022-10-30T04:15:57.862Z,100584.66
2022-10-30T04:17:00.623Z,100588.63
2022-10-30T04:18:02.552Z,100584.13
2022-10-30T04:19:05.270Z,100584.41
2022-10-30T04:20:07.298Z,100579.91
2022-10-30T04:21:08.830Z,100584.72
2022-10-30T04:22:11.975Z,100584.16
2022-10-30T04:23:14.498Z,100581.34
2022-10-30T04:24:18.753Z,100581.66
2022-10-30T04:25:23.180Z,100578.00
2022-10-30T04:26:25.635Z,100590.41
2022-10-30T04:27:27.081Z,100590.72
2022-10-30T04:28:28.672Z,100580.28
2022-10-30T04:29:30.218Z,100587.91
2022-10-30T04:30:35.343Z,100594.69
2022-10-30T04:31:37.011Z,100584.56
2022-10-30T04:32:50.211Z,100589.66
2022-10-30T04:33:53.091Z,100593.31
2022-10-30T04:34:55.922Z,100583.47
2022-10-30T04:35:57.612Z,100593.41
2022-10-30T04:36:59.420Z,100597.38
2022-10-30T04:38:01.672Z,100595.69
2022-10-30T04:39:03.882Z,100590.06
2022-10-30T04:40:07.350Z,100594.03
2022-10-30T04:41:19.133Z,100583.06
2022-10-30T04:42:35.160Z,100588.16
2022-10-30T04:43:36.838Z,100591.25
2022-10-30T04:44:38.341Z,100585.63
2022-10-30T04:45:40.044Z,100589.91
2022-10-30T04:46:41.658Z,100580.59
2022-10-30T04:47:45.073Z,100583.41
2022-10-30T04:48:46.706Z,100586.25
2022-10-30T04:49:48.868Z,100584.56
2022-10-30T04:50:50.954Z,100582.06
2022-10-30T04:51:59.168Z,100591.66
2022-10-30T04:53:06.851Z,100585.19
2022-10-30T04:54:08.348Z,100582.69
2022-10-30T04:55:11.851Z,100582.97
2022-10-30T04:56:14.024Z,100585.25
2022-10-30T04:57:15.536Z,100591.50
2022-10-30T04:58:18.058Z,100579.69
2022-10-30T04:59:24.125Z,100591.59
2022-10-30T05:00:27.717Z,100576.97
2022-10-30T05:01:33.547Z,100584.88
2022-10-30T05:02:39.582Z,100586.31
2022-10-30T05:03:41.399Z,100584.63
2022-10-30T05:04:48.450Z,100582.44
2022-10-30T05:05:56.409Z,100586.09
2022-10-30T05:06:58.245Z,100590.06
2022-10-30T05:08:00.414Z,100583.34
2022-10-30T05:09:03.735Z,100586.16
2022-10-30T05:10:14.633Z,100582.50
2022-10-30T05:11:16.229Z,100583.94
2022-10-30T05:12:19.578Z,100573.81
2022-10-30T05:13:27.470Z,100584.25
2022-10-30T05:14:32.935Z,100576.09
2022-10-30T05:15:34.473Z,100579.53
2022-10-30T05:16:35.990Z,100574.72
2022-10-30T05:17:39.252Z,100573.06
2022-10-30T05:18:40.819Z,100578.69
2022-10-30T05:19:42.362Z,100575.03
2022-10-30T05:20:43.840Z,100574.50
2022-10-30T05:21:45.411Z,100562.09
2022-10-30T05:22:54.370Z,100563.22
2022-10-30T05:23:55.925Z,100573.97
2022-10-30T05:24:58.275Z,100561.06
2022-10-30T05:26:00.262Z,100571.16
2022-10-30T05:27:02.057Z,100564.66
2022-10-30T05:28:05.280Z,100571.16
2022-10-30T05:29:13.234Z,100558.19
2022-10-30T05:30:14.744Z,100567.78
2022-10-30T05:31:16.385Z,100561.59
2022-10-30T05:32:40.807Z,100564.41
2022-10-30T05:33:42.377Z,100562.84
2022-10-30T05:34:43.860Z,100567.31
2022-10-30T05:35:46.254Z,100563.41
2022-10-30T05:36:47.758Z,100560.91
2022-10-30T05:37:49.897Z,100563.50
2022-10-30T05:38:52.019Z,100562.44
2022-10-30T05:40:13.748Z,100572.56
2022-10-30T05:41:15.369Z,100571.47
2022-10-30T05:42:16.860Z,100583.84
2022-10-30T05:43:19.767Z,100563.84
2022-10-30T05:44:40.520Z,100575.13
2022-10-30T05:45:44.024Z,100572.56
2022-10-30T05:46:45.660Z,100572.56
2022-10-30T05:48:00.971Z,100579.03
2022-10-30T05:49:06.433Z,100573.41
2022-10-30T05:50:08.303Z,100570.91
2022-10-30T05:51:10.612Z,100574.28
2022-10-30T05:52:15.297Z,100574.84
2022-10-30T05:53:17.069Z,100569.75
2022-10-30T05:54:19.129Z,100576.53
2022-10-30T05:55:43.644Z,100569.22
2022-10-30T05:56:48.614Z,100576.00
2022-10-30T05:57:50.718Z,100574.03
2022-10-30T05:58:52.552Z,100578.81
2022-10-30T05:59:54.061Z,100573.19
2022-10-30T06:00:55.531Z,100575.47
2022-10-30T06:02:10.945Z,100569.28
2022-10-30T06:03:12.727Z,100571.56
2022-10-30T06:04:16.085Z,100577.22
2022-10-30T06:05:17.934Z,100576.69
2022-10-30T06:06:23.411Z,100576.94
2022-10-30T06:07:25.194Z,100574.44
2022-10-30T06:08:27.148Z,100582.06
2022-10-30T06:09:31.651Z,100580.69
2022-10-30T06:10:53.672Z,100580.16
2022-10-30T06:11:58.653Z,100577.31
2022-10-30T06:13:26.773Z,100584.94
2022-10-30T06:14:36.021Z,100583.56
2022-10-30T06:15:38.818Z,100583.88
2022-10-30T06:16:40.279Z,100583.31
2022-10-30T06:18:02.371Z,100582.78
2022-10-30T06:19:17.647Z,100585.06
2022-10-30T06:20:21.874Z,100593.81
2022-10-30T06:21:26.145Z,100592.13
2022-10-30T06:22:59.415Z,100587.63
2022-10-30T06:24:08.285Z,100590.44
2022-10-30T06:25:21.180Z,100587.09
2022-10-30T06:26:34.054Z,100591.06
2022-10-30T06:27:41.147Z,100593.88
2022-10-30T06:28:42.688Z,100591.31
2022-10-30T06:29:46.088Z,100590.50
2022-10-30T06:30:47.681Z,100592.75
2022-10-30T06:31:49.301Z,100587.13
2022-10-30T06:33:01.843Z,100579.53
2022-10-30T06:34:05.398Z,100590.50
2022-10-30T06:35:09.150Z,100595.56
2022-10-30T06:36:10.870Z,100589.41
2022-10-30T06:37:12.448Z,100585.75
2022-10-30T06:38:15.323Z,100583.78
2022-10-30T06:39:16.826Z,100588.28
2022-10-30T06:40:31.311Z,100587.44
2022-10-30T06:41:53.035Z,100586.28
2022-10-30T06:43:15.891Z,100582.09
2022-10-30T06:44:23.233Z,100586.06
2022-10-30T06:45:25.100Z,100594.50
2022-10-30T06:46:30.511Z,100588.88
2022-10-30T06:47:35.522Z,100591.38
2022-10-30T06:48:37.588Z,100596.19
2022-10-30T06:49:39.043Z,100596.19
2022-10-30T06:50:40.663Z,100592.53
2022-10-30T06:51:42.697Z,100588.88
2022-10-30T06:52:44.303Z,100596.19
2022-10-30T06:53:45.829Z,100595.34
2022-10-30T06:55:22.513Z,100600.13
2022-10-30T06:56:34.497Z,100602.94
2022-10-30T06:57:53.729Z,100604.09
2022-10-30T06:59:13.495Z,100600.13
2022-10-30T07:00:27.954Z,100613.06
2022-10-30T07:02:11.245Z,100608.81
2022-10-30T07:03:26.655Z,100608.53
2022-10-30T07:04:28.519Z,100606.25
2022-10-30T07:05:33.282Z,100604.00
2022-10-30T07:06:35.748Z,100607.34
2022-10-30T07:07:37.192Z,100609.03
2022-10-30T07:08:38.694Z,100618.00
2022-10-30T07:09:41.426Z,100605.28
2022-10-30T07:10:42.889Z,100607.81
2022-10-30T07:11:57.050Z,100615.13
2022-10-30T07:13:17.474Z,100614.53
2022-10-30T07:14:32.273Z,100602.13
2022-10-30T07:15:54.153Z,100614.78
2022-10-30T07:16:59.984Z,100619.81
2022-10-30T07:18:03.789Z,100608.25
2022-10-30T07:19:08.084Z,100616.13
2022-10-30T07:20:09.881Z,100613.00
2022-10-30T07:21:11.356Z,100615.50
2022-10-30T07:22:14.076Z,100618.03
2022-10-30T07:23:19.161Z,100622.22
2022-10-30T07:24:20.745Z,100625.56
2022-10-30T07:25:40.776Z,100627.25
2022-10-30T07:26:56.069Z,100628.38
2022-10-30T07:28:10.859Z,100623.88
2022-10-30T07:29:27.297Z,100626.09
2022-10-30T07:30:58.491Z,100626.66
2022-10-30T07:32:20.434Z,100627.75
2022-10-30T07:33:42.801Z,100618.16
2022-10-30T07:34:54.457Z,100621.22
2022-10-30T07:36:05.548Z,100627.13
2022-10-30T07:37:33.235Z,100632.66
2022-10-30T07:38:41.118Z,100626.44
2022-10-30T07:40:07.460Z,100623.56
2022-10-30T07:41:33.324Z,100627.13
2022-10-30T07:42:58.230Z,100622.81
2022-10-30T07:44:25.335Z,100621.81
2022-10-30T07:45:47.984Z,100623.97
2022-10-30T07:47:07.559Z,100624.66
2022-10-30T07:48:27.612Z,100622.53
2022-10-30T07:49:40.674Z,100624.34
2022-10-30T07:50:43.285Z,100623.06
2022-10-30T07:51:44.767Z,100620.09
2022-10-30T07:52:48.329Z,100619.41
2022-10-30T07:53:53.462Z,100623.50
2022-10-30T07:54:56.885Z,100617.56
2022-10-30T07:56:33.216Z,100622.69
2022-10-30T07:58:10.258Z,100627.47
2022-10-30T07:59:35.115Z,100623.19
2022-10-30T08:00:55.393Z,100617.56
2022-10-30T08:02:04.430Z,100614.56
2022-10-30T08:03:15.309Z,100619.50
2022-10-30T08:04:31.919Z,100616.44
2022-10-30T08:05:41.471Z,100619.91
2022-10-30T08:06:46.482Z,100620.97
2022-10-30T08:07:48.253Z,100618.84
2022-10-30T08:08:49.873Z,100620.09
2022-10-30T08:10:00.873Z,100623.66
2022-10-30T08:11:02.328Z,100616.41
2022-10-30T08:12:05.071Z,100610.22
2022-10-30T08:13:07.014Z,100613.13
2022-10-30T08:14:09.206Z,100619.72
2022-10-30T08:15:10.934Z,100621.47
2022-10-30T08:16:12.957Z,100625.22
2022-10-30T08:17:14.592Z,100620.94
2022-10-30T08:18:18.051Z,100626.03
2022-10-30T08:19:19.573Z,100625.13
2022-10-30T08:20:23.500Z,100609.50
2022-10-30T08:21:25.708Z,100631.66
2022-10-30T08:22:46.610Z,100625.06
2022-10-30T08:23:48.093Z,100625.78
2022-10-30T08:24:51.794Z,100627.03
2022-10-30T08:25:53.522Z,100619.91
2022-10-30T08:26:56.977Z,100621.63
2022-10-30T08:28:01.885Z,100625.19
2022-10-30T08:29:07.239Z,100622.38
2022-10-30T08:30:08.893Z,100624.41
2022-10-30T08:31:10.460Z,100617.56
2022-10-30T08:32:30.496Z,100623.09
2022-10-30T08:34:04.449Z,100617.94
2022-10-30T08:35:24.682Z,100615.09
2022-10-30T08:36:26.380Z,100621.06
2022-10-30T08:37:27.858Z,100621.72
2022-10-30T08:38:29.454Z,100614.69
2022-10-30T08:39:57.262Z,100618.97
2022-10-30T08:41:10.171Z,100618.28
2022-10-30T08:42:18.602Z,100628.78
2022-10-30T08:43:20.694Z,100624.03
2022-10-30T08:44:22.313Z,100624.97
2022-10-30T08:45:46.871Z,100617.38
2022-10-30T08:46:49.705Z,100620.03
2022-10-30T08:47:57.256Z,100618.97
2022-10-30T08:49:01.500Z,100615.09
2022-10-30T08:50:04.515Z,100617.19
2022-10-30T08:51:07.234Z,100609.63
2022-10-30T08:52:17.376Z,100611.00
2022-10-30T08:53:23.570Z,100619.19
2022-10-30T08:54:26.774Z,100605.88
2022-10-30T08:55:29.572Z,100604.81
2022-10-30T08:56:31.668Z,100593.69
2022-10-30T08:57:42.235Z,100599.25
2022-10-30T08:58:44.115Z,100600.63
2022-10-30T08:59:45.827Z,100601.72
2022-10-30T09:01:05.517Z,100599.69
2022-10-30T09:02:33.262Z,100595.13
2022-10-30T09:04:03.895Z,100591.38
2022-10-30T09:05:25.470Z,100597.13
2022-10-30T09:06:45.576Z,100588.66
2022-10-30T09:08:16.009Z,100596.16
2022-10-30T09:09:35.792Z,100594.47
2022-10-30T09:10:38.303Z,100589.50
2022-10-30T09:11:39.979Z,100588.22
2022-10-30T09:12:42.231Z,100588.38
2022-10-30T09:13:43.693Z,100586.72
2022-10-30T09:14:46.415Z,100589.31
2022-10-30T09:15:47.979Z,100586.84
2022-10-30T09:16:49.547Z,100581.75
2022-10-30T09:18:03.485Z,100590.59
2022-10-30T09:19:05.398Z,100585.81
2022-10-30T09:20:07.000Z,100588.81
2022-10-30T09:21:10.773Z,100582.75
2022-10-30T09:22:18.016Z,100585.72
2022-10-30T09:23:19.844Z,100585.81
2022-10-30T09:24:25.586Z,100572.94
2022-10-30T09:25:27.172Z,100572.47
2022-10-30T09:26:49.058Z,100605.38
2022-10-30T09:27:59.006Z,100594.28
2022-10-30T09:29:03.961Z,100566.84
2022-10-30T09:30:31.061Z,100566.94
2022-10-30T09:31:35.359Z,100569.78
2022-10-30T09:32:38.892Z,100597.84
2022-10-30T09:33:44.534Z,100590.69
2022-10-30T09:35:05.252Z,100580.16
2022-10-30T09:36:11.676Z,100578.63
2022-10-30T09:37:13.300Z,100575.72
2022-10-30T09:38:17.426Z,100594.06
2022-10-30T09:39:19.295Z,100592.13
2022-10-30T09:40:29.644Z,100611.13
2022-10-30T09:41:40.431Z,100583.94
2022-10-30T09:42:46.031Z,100575.56
2022-10-30T09:43:59.184Z,100590.06
2022-10-30T09:45:27.935Z,100588.22
2022-10-30T09:46:45.785Z,100593.84
2022-10-30T09:47:53.264Z,100602.97
2022-10-30T09:49:05.382Z,100591.63
2022-10-30T09:50:14.361Z,100596.34
2022-10-30T09:51:32.636Z,100599.22
2022-10-30T09:52:40.318Z,100602.09
2022-10-30T09:53:45.294Z,100592.41
2022-10-30T09:55:01.364Z,100586.78
2022-10-30T09:56:03.174Z,100595.53
2022-10-30T09:57:18.082Z,100605.31
2022-10-30T09:58:22.775Z,100594.63
2022-10-30T09:59:34.505Z,100594.69
2022-10-30T10:00:39.998Z,100602.28
2022-10-30T10:01:52.200Z,100601.38
2022-10-30T10:02:53.869Z,100589.63
2022-10-30T10:03:58.529Z,100595.72
2022-10-30T10:05:26.807Z,100609.13
2022-10-30T10:07:07.730Z,100599.41
2022-10-30T10:08:45.520Z,100602.09
2022-10-30T10:10:06.979Z,100595.34
2022-10-30T10:11:31.496Z,100601.53
2022-10-30T10:12:33.073Z,100597.09
2022-10-30T10:13:39.078Z,100589.34
2022-10-30T10:14:44.407Z,100598.03
2022-10-30T10:15:50.092Z,100591.19
2022-10-30T10:16:52.261Z,100598.75
2022-10-30T10:17:53.958Z,100595.78
2022-10-30T10:19:04.527Z,100588.47
2022-10-30T10:20:06.682Z,100586.94
2022-10-30T10:21:14.293Z,100592.44
2022-10-30T10:22:18.649Z,100600.31
2022-10-30T10:23:34.163Z,100592.28
2022-10-30T10:24:39.374Z,100586.44
2022-10-30T10:25:41.481Z,100593.38
2022-10-30T10:26:52.716Z,100576.00
2022-10-30T10:27:54.382Z,100588.28
2022-10-30T10:28:55.882Z,100583.03
2022-10-30T10:29:57.456Z,100570.06
2022-10-30T10:31:11.878Z,100591.31
2022-10-30T10:32:28.788Z,100589.66
2022-10-30T10:33:36.718Z,100576.69
2022-10-30T10:34:50.221Z,100572.94
2022-10-30T10:36:10.309Z,100582.16
2022-10-30T10:37:22.150Z,100569.94
2022-10-30T10:38:49.576Z,100571.06
2022-10-30T10:39:51.192Z,100582.59
2022-10-30T10:41:15.299Z,100580.03
2022-10-30T10:42:16.898Z,100561.41
2022-10-30T10:43:37.480Z,100574.75
2022-10-30T10:44:42.458Z,100579.81
2022-10-30T10:45:46.938Z,100576.25
2022-10-30T10:47:16.944Z,100586.13
2022-10-30T10:48:53.699Z,100573.31
2022-10-30T10:49:57.290Z,100574.59
2022-10-30T10:51:01.447Z,100567.00
2022-10-30T10:52:04.566Z,100563.13
2022-10-30T10:53:07.459Z,100573.09
2022-10-30T10:54:11.384Z,100569.31
2022-10-30T10:55:17.009Z,100572.28
2022-10-30T10:56:18.613Z,100562.09
2022-10-30T10:57:27.424Z,100578.13
2022-10-30T10:58:31.915Z,100570.56
2022-10-30T10:59:33.348Z,100571.75
2022-10-30T11:00:34.806Z,100556.97
2022-10-30T11:01:39.842Z,100566.22
2022-10-30T11:02:42.293Z,100590.84
2022-10-30T11:03:52.936Z,100590.47
2022-10-30T11:04:54.414Z,100567.38
2022-10-30T11:06:13.937Z,100560.72
2022-10-30T11:07:18.338Z,100574.38
2022-10-30T11:08:21.133Z,100571.69
2022-10-30T11:09:23.130Z,100574.91
2022-10-30T11:10:26.260Z,100574.59
2022-10-30T11:11:27.759Z,100573.59
2022-10-30T11:12:33.632Z,100574.31
2022-10-30T11:13:38.568Z,100574.28
2022-10-30T11:14:39.996Z,100584.03
2022-10-30T11:15:47.286Z,100575.97
2022-10-30T11:16:48.802Z,100566.00
2022-10-30T11:17:56.241Z,100566.03
2022-10-30T11:19:01.365Z,100570.22
2022-10-30T11:20:03.330Z,100573.94
2022-10-30T11:21:16.501Z,100568.69
2022-10-30T11:22:36.565Z,100572.97
2022-10-30T11:23:42.097Z,100568.19
2022-10-30T11:24:43.533Z,100561.28
2022-10-30T11:25:45.049Z,100553.91
2022-10-30T11:26:46.504Z,100562.47
2022-10-30T11:27:48.564Z,100565.34
2022-10-30T11:28:50.009Z,100563.81
2022-10-30T11:30:11.723Z,100566.56
2022-10-30T11:31:20.465Z,100558.25
2022-10-30T11:32:22.914Z,100561.69
2022-10-30T11:33:28.589Z,100560.75
2022-10-30T11:34:36.352Z,100564.31
2022-10-30T11:35:41.978Z,100559.91
2022-10-30T11:36:43.890Z,100561.34
2022-10-30T11:37:46.075Z,100559.66
2022-10-30T11:38:47.562Z,100559.44
2022-10-30T11:39:54.743Z,100566.34
2022-10-30T11:40:56.187Z,100560.13
2022-10-30T11:42:16.629Z,100559.31
2022-10-30T11:43:20.010Z,100557.03
2022-10-30T11:44:22.258Z,100562.50
2022-10-30T11:45:29.398Z,100559.16
2022-10-30T11:46:30.859Z,100556.31
2022-10-30T11:48:43.505Z,100546.34
2022-10-30T11:49:50.957Z,100551.06
2022-10-30T11:50:52.483Z,100545.72
2022-10-30T11:51:54.093Z,100547.50
2022-10-30T11:52:56.254Z,100552.50
2022-10-30T11:53:57.713Z,100547.03
2022-10-30T11:55:03.578Z,100546.31
2022-10-30T11:56:05.350Z,100543.69
2022-10-30T11:57:13.122Z,100542.88
2022-10-30T11:58:21.099Z,100543.97
2022-10-30T11:59:23.018Z,100546.56
2022-10-30T12:00:25.668Z,100546.84
2022-10-30T12:01:27.175Z,100540.06
2022-10-30T12:02:29.637Z,100544.56
2022-10-30T12:03:35.217Z,100543.03
2022-10-30T12:04:36.665Z,100539.19
2022-10-30T12:05:43.691Z,100541.94
2022-10-30T12:06:46.716Z,100543.22
2022-10-30T12:07:48.194Z,100536.34
2022-10-30T12:08:59.132Z,100542.19
2022-10-30T12:10:01.848Z,100536.13
2022-10-30T12:11:04.128Z,100538.25
2022-10-30T12:12:10.534Z,100532.06
2022-10-30T12:13:15.414Z,100532.75
2022-10-30T12:14:19.683Z,100531.09
2022-10-30T12:15:21.843Z,100537.50
2022-10-30T12:16:23.312Z,100536.69
2022-10-30T12:17:24.763Z,100539.31
2022-10-30T12:19:33.262Z,100530.59
2022-10-30T12:20:36.595Z,100534.44
2022-10-30T12:21:39.753Z,100529.31
2022-10-30T12:22:41.775Z,100530.16
2022-10-30T12:23:43.235Z,100521.38
2022-10-30T12:24:44.776Z,100521.13
2022-10-30T12:25:49.228Z,100524.22
2022-10-30T12:26:51.315Z,100520.03
2022-10-30T12:27:58.396Z,100532.06
2022-10-30T12:29:00.835Z,100526.47
2022-10-30T12:30:11.837Z,100523.38
2022-10-30T12:31:14.141Z,100516.97
2022-10-30T12:32:17.280Z,100521.00
2022-10-30T12:33:26.034Z,100525.72
2022-10-30T12:34:29.645Z,100524.91
2022-10-30T12:35:41.139Z,100523.50
2022-10-30T12:36:44.977Z,100520.03
2022-10-30T12:37:46.449Z,100517.78
2022-10-30T12:38:50.086Z,100526.81